createdAt,value
2019-01-30T00:00:17.903Z,2.60
2019-01-30T00:02:43.912Z,2.70
2019-01-30T00:05:09.935Z,2.70
2019-01-30T00:07:35.963Z,2.70
2019-01-30T00:10:04.136Z,2.80
2019-01-30T00:12:30.167Z,2.80
2019-01-30T00:14:56.237Z,2.80
2019-01-30T00:17:22.315Z,2.80
2019-01-30T00:19:48.378Z,2.80
2019-01-30T00:22:14.389Z,2.80
2019-01-30T00:24:40.440Z,2.80
2019-01-30T00:27:06.472Z,2.80
2019-01-30T00:29:32.484Z,2.90
2019-01-30T00:31:58.527Z,2.90
2019-01-30T00:34:24.615Z,3.00
2019-01-30T00:36:50.628Z,3.00
2019-01-30T00:39:16.638Z,3.00
2019-01-30T00:41:42.675Z,3.10
2019-01-30T00:44:08.888Z,3.10
2019-01-30T00:46:34.908Z,3.20
2019-01-30T00:49:00.951Z,3.20
2019-01-30T00:51:26.988Z,3.20
2019-01-30T00:53:53.022Z,3.30
2019-01-30T00:56:19.096Z,3.30
2019-01-30T00:58:45.127Z,3.30
2019-01-30T01:01:11.159Z,3.40
2019-01-30T01:03:37.191Z,3.50
2019-01-30T01:06:03.203Z,3.50
2019-01-30T01:08:29.234Z,3.40
2019-01-30T01:10:55.235Z,3.40
2019-01-30T01:13:21.259Z,3.50
2019-01-30T01:15:47.275Z,3.50
2019-01-30T01:18:13.322Z,3.60
2019-01-30T01:20:39.334Z,3.70
2019-01-30T01:23:05.348Z,3.70
2019-01-30T01:25:31.379Z,3.80
2019-01-30T01:27:57.389Z,3.90
2019-01-30T01:30:25.818Z,3.80
2019-01-30T01:32:52.096Z,3.80
2019-01-30T01:35:18.107Z,3.80
2019-01-30T01:37:44.115Z,3.90
2019-01-30T01:40:12.347Z,3.90
2019-01-30T01:42:38.355Z,3.80
2019-01-30T01:45:07.991Z,3.80
2019-01-30T01:47:34.002Z,3.90
2019-01-30T01:50:00.007Z,3.90
2019-01-30T01:52:26.076Z,3.80
2019-01-30T01:54:52.090Z,3.80
2019-01-30T01:57:18.115Z,3.90
2019-01-30T01:59:44.147Z,3.90
2019-01-30T02:02:10.172Z,3.90
2019-01-30T02:04:37.451Z,4.00
2019-01-30T02:07:03.463Z,4.00
2019-01-30T02:09:29.498Z,4.00
2019-01-30T02:11:55.512Z,4.00
2019-01-30T02:14:21.548Z,4.10
2019-01-30T02:16:47.563Z,4.10
2019-01-30T02:19:13.596Z,4.20
2019-01-30T02:21:39.688Z,4.20
2019-01-30T02:24:05.716Z,4.20
2019-01-30T02:26:31.723Z,4.10
2019-01-30T02:28:57.754Z,4.00
2019-01-30T02:31:23.759Z,4.00
2019-01-30T02:33:49.787Z,3.90
2019-01-30T02:36:15.835Z,3.80
2019-01-30T02:38:41.983Z,3.80
2019-01-30T02:41:08.001Z,3.70
2019-01-30T02:43:34.078Z,3.60
2019-01-30T02:46:00.111Z,3.80
2019-01-30T02:48:26.200Z,3.80
2019-01-30T02:50:52.231Z,3.70
2019-01-30T02:53:18.268Z,3.70
2019-01-30T02:55:44.306Z,3.70
2019-01-30T02:58:10.352Z,3.70
2019-01-30T03:00:36.987Z,3.70
2019-01-30T03:03:03.096Z,3.70
2019-01-30T03:05:29.552Z,3.70
2019-01-30T03:07:55.567Z,3.70
2019-01-30T03:10:22.105Z,3.70
2019-01-30T03:12:48.128Z,3.80
2019-01-30T03:15:15.564Z,3.80
2019-01-30T03:17:41.582Z,3.90
2019-01-30T03:20:10.707Z,3.90
2019-01-30T03:22:36.739Z,3.90
2019-01-30T03:25:05.851Z,3.90
2019-01-30T03:27:31.908Z,3.80
2019-01-30T03:29:57.960Z,3.80
2019-01-30T03:32:23.972Z,3.70
2019-01-30T03:34:49.989Z,3.70
2019-01-30T03:37:16.029Z,3.80
2019-01-30T03:39:42.036Z,3.80
2019-01-30T03:42:08.075Z,3.80
2019-01-30T03:44:34.142Z,3.80
2019-01-30T03:47:00.176Z,3.80
2019-01-30T03:49:26.228Z,3.80
2019-01-30T03:51:52.260Z,3.90
2019-01-30T03:54:18.272Z,3.80
2019-01-30T03:56:44.308Z,3.80
2019-01-30T03:59:10.318Z,3.70
2019-01-30T04:01:36.359Z,3.60
2019-01-30T04:04:02.376Z,3.50
2019-01-30T04:06:28.395Z,3.50
2019-01-30T04:08:54.423Z,3.60
2019-01-30T04:11:20.464Z,3.60
2019-01-30T04:13:46.499Z,3.60
2019-01-30T04:16:12.588Z,3.60
2019-01-30T04:18:38.614Z,3.60
2019-01-30T04:21:04.686Z,3.60
2019-01-30T04:23:30.731Z,3.70
2019-01-30T04:25:56.748Z,3.70
2019-01-30T04:28:22.783Z,3.70
2019-01-30T04:30:48.820Z,3.80
2019-01-30T04:33:14.929Z,3.90
2019-01-30T04:35:40.983Z,4.00
2019-01-30T04:38:07.039Z,4.00
2019-01-30T04:40:33.062Z,3.90
2019-01-30T04:42:59.076Z,3.80
2019-01-30T04:45:25.118Z,3.80
2019-01-30T04:47:51.147Z,3.80
2019-01-30T04:50:17.183Z,3.80
2019-01-30T04:52:43.224Z,3.80
2019-01-30T04:55:09.355Z,3.80
2019-01-30T04:57:35.376Z,3.80
2019-01-30T05:00:03.729Z,3.70
2019-01-30T05:02:29.748Z,3.60
2019-01-30T05:04:55.759Z,3.60
2019-01-30T05:07:21.788Z,3.50
2019-01-30T05:09:47.819Z,3.60
2019-01-30T05:12:13.854Z,3.60
2019-01-30T05:14:39.887Z,3.60
2019-01-30T05:17:05.927Z,3.70
2019-01-30T05:19:32.148Z,3.70
2019-01-30T05:21:58.220Z,3.70
2019-01-30T05:24:24.241Z,3.80
2019-01-30T05:26:50.283Z,3.90
2019-01-30T05:29:16.295Z,3.90
2019-01-30T05:31:42.334Z,3.90
2019-01-30T05:34:08.347Z,3.90
2019-01-30T05:36:34.379Z,3.90
2019-01-30T05:39:00.396Z,3.80
2019-01-30T05:41:26.431Z,3.80
2019-01-30T05:43:52.467Z,3.80
2019-01-30T05:46:18.480Z,3.90
2019-01-30T05:48:44.518Z,3.90
2019-01-30T05:51:10.573Z,3.90
2019-01-30T05:53:36.583Z,4.00
2019-01-30T05:56:02.728Z,3.90
2019-01-30T05:58:28.748Z,4.00
2019-01-30T06:00:54.782Z,4.00
2019-01-30T06:03:20.797Z,4.00
2019-01-30T06:05:47.020Z,4.00
2019-01-30T06:08:13.046Z,4.00
2019-01-30T06:10:39.056Z,4.00
2019-01-30T06:13:05.326Z,4.00
2019-01-30T06:15:31.435Z,4.00
2019-01-30T06:17:57.493Z,4.00
2019-01-30T06:20:25.619Z,4.00
2019-01-30T06:22:52.987Z,4.00
2019-01-30T06:25:19.047Z,4.00
2019-01-30T06:27:45.095Z,3.90
2019-01-30T06:30:13.703Z,4.00
2019-01-30T06:32:39.820Z,4.00
2019-01-30T06:35:05.858Z,4.00
2019-01-30T06:37:31.946Z,4.00
2019-01-30T06:39:57.984Z,4.00
2019-01-30T06:42:24.011Z,4.00
2019-01-30T06:44:50.043Z,4.00
2019-01-30T06:47:16.063Z,4.00
2019-01-30T06:49:42.094Z,3.90
2019-01-30T06:52:08.151Z,4.00
2019-01-30T06:54:34.209Z,4.00
2019-01-30T06:57:00.299Z,3.90
2019-01-30T06:59:26.331Z,4.00
2019-01-30T07:01:52.348Z,4.10
2019-01-30T07:04:18.399Z,4.10
2019-01-30T07:06:44.414Z,4.10
2019-01-30T07:09:10.431Z,4.10
2019-01-30T07:11:36.460Z,4.10
2019-01-30T07:14:02.539Z,4.10
2019-01-30T07:16:28.579Z,4.00
2019-01-30T07:18:54.595Z,4.00
2019-01-30T07:21:20.635Z,4.00
2019-01-30T07:23:46.647Z,4.10
2019-01-30T07:26:12.671Z,4.00
2019-01-30T07:28:38.683Z,4.10
2019-01-30T07:31:04.720Z,4.00
2019-01-30T07:33:30.739Z,4.10
2019-01-30T07:35:56.779Z,4.10
2019-01-30T07:38:22.794Z,4.20
2019-01-30T07:40:48.831Z,4.20
2019-01-30T07:43:14.848Z,4.20
2019-01-30T07:45:40.864Z,4.20
2019-01-30T07:48:06.899Z,4.20
2019-01-30T07:50:32.931Z,4.20
2019-01-30T07:52:59.159Z,4.20
2019-01-30T07:55:25.335Z,4.20
2019-01-30T07:57:51.550Z,4.30
2019-01-30T08:00:19.979Z,4.30
2019-01-30T08:02:52.873Z,4.30
2019-01-30T08:05:13.927Z,4.30
2019-01-30T08:07:39.942Z,4.30
2019-01-30T08:10:09.576Z,4.40
2019-01-30T08:12:35.607Z,4.30
2019-01-30T08:15:01.615Z,4.30
2019-01-30T08:17:27.643Z,4.30
2019-01-30T08:19:53.680Z,4.20
2019-01-30T08:22:19.791Z,4.30
2019-01-30T08:24:45.920Z,4.20
2019-01-30T08:27:12.095Z,4.10
2019-01-30T08:29:38.724Z,4.10
2019-01-30T08:32:05.069Z,4.00
2019-01-30T08:34:31.264Z,4.00
2019-01-30T08:36:57.275Z,4.10
2019-01-30T08:39:23.331Z,4.10
2019-01-30T08:41:49.439Z,4.20
2019-01-30T08:44:15.467Z,4.20
2019-01-30T08:46:41.475Z,4.20
2019-01-30T08:49:07.518Z,4.20
2019-01-30T08:51:33.547Z,4.20
2019-01-30T08:53:59.564Z,4.20
2019-01-30T08:56:25.603Z,4.20
2019-01-30T08:58:51.644Z,4.30
2019-01-30T09:01:17.683Z,4.20
2019-01-30T09:03:43.743Z,4.40
2019-01-30T09:06:09.772Z,4.40
2019-01-30T09:08:35.821Z,4.40
2019-01-30T09:11:01.828Z,4.40
2019-01-30T09:13:27.848Z,4.40
2019-01-30T09:15:53.883Z,4.40
2019-01-30T09:18:19.900Z,4.30
2019-01-30T09:20:45.926Z,4.20
2019-01-30T09:23:11.942Z,4.10
2019-01-30T09:25:38.055Z,4.10
2019-01-30T09:28:04.080Z,4.10
2019-01-30T09:30:35.843Z,4.10
2019-01-30T09:33:02.155Z,4.10
2019-01-30T09:35:28.275Z,4.10
2019-01-30T09:37:54.343Z,4.20
2019-01-30T09:40:20.828Z,4.20
2019-01-30T09:42:46.859Z,4.10
2019-01-30T09:45:19.664Z,4.20
2019-01-30T09:47:45.802Z,4.20
2019-01-30T09:50:18.441Z,4.10
2019-01-30T09:52:44.483Z,4.10
2019-01-30T09:55:12.515Z,4.10
2019-01-30T09:57:38.531Z,4.20
2019-01-30T10:00:11.368Z,4.20
2019-01-30T10:02:37.382Z,4.30
2019-01-30T10:05:07.225Z,4.20
2019-01-30T10:07:33.375Z,4.00
2019-01-30T10:09:59.413Z,3.80
2019-01-30T10:12:25.420Z,3.90
2019-01-30T10:14:51.443Z,3.90
2019-01-30T10:17:17.467Z,4.00
2019-01-30T10:19:43.487Z,4.00
2019-01-30T10:22:09.535Z,3.90
2019-01-30T10:24:35.648Z,3.90
2019-01-30T10:27:01.663Z,3.80
2019-01-30T10:29:27.702Z,3.80
2019-01-30T10:31:53.776Z,3.80
2019-01-30T10:34:19.799Z,3.80
2019-01-30T10:36:45.837Z,3.90
2019-01-30T10:39:11.971Z,3.90
2019-01-30T10:41:38.021Z,3.90
2019-01-30T10:44:04.035Z,3.90
2019-01-30T10:46:30.063Z,3.90
2019-01-30T10:48:56.079Z,3.80
2019-01-30T10:51:22.112Z,3.80
2019-01-30T10:53:48.350Z,3.70
2019-01-30T10:56:16.539Z,3.70
2019-01-30T10:58:42.413Z,3.70
2019-01-30T11:01:08.429Z,3.70
2019-01-30T11:03:40.192Z,3.60
2019-01-30T11:06:06.232Z,3.50
2019-01-30T11:08:34.490Z,3.40
2019-01-30T11:11:07.474Z,3.30
2019-01-30T11:13:28.103Z,3.30
2019-01-30T11:15:54.159Z,3.10
2019-01-30T11:18:20.176Z,3.10
2019-01-30T11:20:46.191Z,3.00
2019-01-30T11:23:12.231Z,3.00
2019-01-30T11:25:41.067Z,3.00
2019-01-30T11:28:07.196Z,3.00
2019-01-30T11:30:34.989Z,2.90
2019-01-30T11:33:01.147Z,3.00
2019-01-30T11:35:27.163Z,3.00
2019-01-30T11:37:53.191Z,2.90
2019-01-30T11:40:20.540Z,3.00
2019-01-30T11:42:46.571Z,2.90
2019-01-30T11:45:22.397Z,2.80
2019-01-30T11:47:48.423Z,2.80
2019-01-30T11:50:15.441Z,2.80
2019-01-30T11:52:41.465Z,2.80
2019-01-30T11:55:13.345Z,2.80
2019-01-30T11:57:39.368Z,2.80
2019-01-30T12:00:12.755Z,2.90
2019-01-30T12:02:47.756Z,3.00
2019-01-30T12:05:10.127Z,3.20
2019-01-30T12:07:36.179Z,3.20
2019-01-30T12:10:05.067Z,3.20
2019-01-30T12:12:31.079Z,3.20
2019-01-30T12:14:57.107Z,3.20
2019-01-30T12:17:23.144Z,3.20
2019-01-30T12:19:49.155Z,3.20
2019-01-30T12:22:15.179Z,3.20
2019-01-30T12:24:41.196Z,3.30
2019-01-30T12:27:07.235Z,3.40
2019-01-30T12:29:33.247Z,3.40
2019-01-30T12:31:59.284Z,3.40
2019-01-30T12:34:28.239Z,3.50
2019-01-30T12:36:53.336Z,3.40
2019-01-30T12:39:19.351Z,3.30
2019-01-30T12:41:45.383Z,3.20
2019-01-30T12:44:11.415Z,3.20
2019-01-30T12:46:37.452Z,3.10
2019-01-30T12:49:03.498Z,3.10
2019-01-30T12:51:29.507Z,3.00
2019-01-30T12:53:55.527Z,2.90
2019-01-30T12:56:21.560Z,2.90
2019-01-30T12:58:47.606Z,2.80
2019-01-30T13:01:13.643Z,2.80
2019-01-30T13:03:39.660Z,2.70
2019-01-30T13:06:05.699Z,2.80
2019-01-30T13:08:31.711Z,2.90
2019-01-30T13:10:57.744Z,2.90
2019-01-30T13:13:23.760Z,2.90
2019-01-30T13:15:49.795Z,2.90
2019-01-30T13:18:18.620Z,2.90
2019-01-30T13:20:43.757Z,2.90
2019-01-30T13:23:09.779Z,2.90
2019-01-30T13:25:35.815Z,2.80
2019-01-30T13:28:01.831Z,2.80
2019-01-30T13:30:35.437Z,2.80
2019-01-30T13:33:01.470Z,2.70
2019-01-30T13:35:27.511Z,2.80
2019-01-30T13:37:53.548Z,2.80
2019-01-30T13:40:28.273Z,2.90
2019-01-30T13:42:54.306Z,3.00
2019-01-30T13:45:20.319Z,3.00
2019-01-30T13:47:46.356Z,3.00
2019-01-30T13:50:15.731Z,3.00
2019-01-30T13:52:41.749Z,3.10
2019-01-30T13:55:09.126Z,3.00
2019-01-30T13:57:35.244Z,3.10
2019-01-30T14:00:01.279Z,3.00
2019-01-30T14:02:27.295Z,3.00
2019-01-30T14:04:59.263Z,3.00
2019-01-30T14:07:21.285Z,3.00
2019-01-30T14:09:47.393Z,3.10
2019-01-30T14:12:13.428Z,3.20
2019-01-30T14:14:39.459Z,3.30
2019-01-30T14:17:05.499Z,3.20
2019-01-30T14:19:31.614Z,3.30
2019-01-30T14:21:57.802Z,3.20
2019-01-30T14:24:23.929Z,3.20
2019-01-30T14:26:49.944Z,3.20
2019-01-30T14:29:16.105Z,3.00
2019-01-30T14:31:42.217Z,3.00
2019-01-30T14:34:08.433Z,3.00
2019-01-30T14:36:34.445Z,3.10
2019-01-30T14:39:00.502Z,3.10
2019-01-30T14:41:26.583Z,3.00
2019-01-30T14:43:52.623Z,3.10
2019-01-30T14:46:18.635Z,3.10
2019-01-30T14:48:44.683Z,3.00
2019-01-30T14:51:10.702Z,3.00
2019-01-30T14:53:36.744Z,3.00
2019-01-30T14:56:03.247Z,3.00
2019-01-30T14:58:29.323Z,3.00
2019-01-30T15:00:55.427Z,3.00
2019-01-30T15:03:21.459Z,2.90
2019-01-30T15:05:47.509Z,2.80
2019-01-30T15:08:13.551Z,2.90
2019-01-30T15:10:39.640Z,2.90
2019-01-30T15:13:05.769Z,2.90
2019-01-30T15:15:31.780Z,2.90
2019-01-30T15:17:57.916Z,3.00
2019-01-30T15:20:29.229Z,3.00
2019-01-30T15:22:55.396Z,2.90
2019-01-30T15:25:22.331Z,2.90
2019-01-30T15:27:48.371Z,2.90
2019-01-30T15:30:20.419Z,2.90
2019-01-30T15:32:46.470Z,2.80
2019-01-30T15:35:12.503Z,2.70
2019-01-30T15:37:38.516Z,2.60
2019-01-30T15:40:28.235Z,2.50
2019-01-30T15:42:54.251Z,2.60
2019-01-30T15:45:21.891Z,2.50
2019-01-30T15:47:47.939Z,2.40
2019-01-30T15:50:19.643Z,2.30
2019-01-30T15:52:45.670Z,2.30
2019-01-30T15:55:33.518Z,2.30
2019-01-30T15:58:07.915Z,2.30
2019-01-30T16:00:43.781Z,2.20
2019-01-30T16:03:09.931Z,2.10
2019-01-30T16:05:44.651Z,2.20
2019-01-30T16:08:03.875Z,2.30
2019-01-30T16:10:29.912Z,2.40
2019-01-30T16:12:55.977Z,2.40
2019-01-30T16:15:31.231Z,2.40
2019-01-30T16:17:57.263Z,2.40
2019-01-30T16:20:23.275Z,2.40
2019-01-30T16:22:49.318Z,2.40
2019-01-30T16:25:15.356Z,2.30
2019-01-30T16:27:41.368Z,2.40
2019-01-30T16:30:31.612Z,2.30
2019-01-30T16:32:57.703Z,2.30
2019-01-30T16:35:26.131Z,2.30
2019-01-30T16:37:52.177Z,2.30
2019-01-30T16:40:18.236Z,2.40
2019-01-30T16:42:44.329Z,2.40
2019-01-30T16:45:13.443Z,2.40
2019-01-30T16:47:39.564Z,2.40
2019-01-30T16:50:08.784Z,2.40
2019-01-30T16:52:34.819Z,2.30
2019-01-30T16:55:00.843Z,2.40
2019-01-30T16:57:26.916Z,2.40
2019-01-30T16:59:53.067Z,2.30
2019-01-30T17:02:19.116Z,2.30
2019-01-30T17:04:45.246Z,2.30
2019-01-30T17:07:11.255Z,2.30
2019-01-30T17:09:37.363Z,2.30
2019-01-30T17:12:03.491Z,2.30
2019-01-30T17:14:29.508Z,2.30
2019-01-30T17:16:55.523Z,2.30
2019-01-30T17:19:22.275Z,2.30
2019-01-30T17:21:48.290Z,2.20
2019-01-30T17:24:14.344Z,2.30
2019-01-30T17:26:40.377Z,2.30
2019-01-30T17:29:26.284Z,2.20
2019-01-30T17:31:52.303Z,2.20
2019-01-30T17:34:18.340Z,2.20
2019-01-30T17:36:44.371Z,2.20
2019-01-30T17:39:10.383Z,2.20
2019-01-30T17:41:36.420Z,2.20
2019-01-30T17:44:02.431Z,2.20
2019-01-30T17:46:28.468Z,2.20
2019-01-30T17:48:54.512Z,2.20
2019-01-30T17:51:20.527Z,2.20
2019-01-30T17:53:46.596Z,2.20
2019-01-30T17:56:12.628Z,2.20
2019-01-30T17:58:38.694Z,2.30
2019-01-30T18:01:05.019Z,2.30
2019-01-30T18:03:31.048Z,2.20
2019-01-30T18:05:57.131Z,2.20
2019-01-30T18:08:23.192Z,2.20
2019-01-30T18:10:49.322Z,2.00
2019-01-30T18:13:15.344Z,2.00
2019-01-30T18:15:41.391Z,1.90
2019-01-30T18:18:07.399Z,1.80
2019-01-30T18:20:33.455Z,1.70
2019-01-30T18:22:59.492Z,1.70
2019-01-30T18:25:25.506Z,1.80
2019-01-30T18:28:11.420Z,1.80
2019-01-30T18:30:38.548Z,1.80
2019-01-30T18:33:04.592Z,1.80
2019-01-30T18:35:50.488Z,1.70
2019-01-30T18:38:16.560Z,1.70
2019-01-30T18:40:42.598Z,1.70
2019-01-30T18:43:08.628Z,1.60
2019-01-30T18:45:34.664Z,1.70
2019-01-30T18:48:00.822Z,1.80
2019-01-30T18:50:28.040Z,1.90
2019-01-30T18:52:54.050Z,2.10
2019-01-30T18:55:20.179Z,2.30
2019-01-30T18:57:46.684Z,2.30
2019-01-30T19:00:16.431Z,2.20
2019-01-30T19:02:42.447Z,2.10
2019-01-30T19:05:10.664Z,2.20
2019-01-30T19:07:36.696Z,2.30
2019-01-30T19:10:06.567Z,2.50
2019-01-30T19:12:32.580Z,2.50
2019-01-30T19:14:58.618Z,2.50
2019-01-30T19:17:24.639Z,2.50
2019-01-30T19:19:51.775Z,2.50
2019-01-30T19:22:17.789Z,2.40
2019-01-30T19:24:43.804Z,2.40
2019-01-30T19:27:09.931Z,2.50
2019-01-30T19:29:36.036Z,2.50
2019-01-30T19:32:02.076Z,2.50
2019-01-30T19:34:28.091Z,2.40
2019-01-30T19:37:03.228Z,2.20
2019-01-30T19:39:22.163Z,2.10
2019-01-30T19:41:50.243Z,2.00
2019-01-30T19:44:16.120Z,1.90
2019-01-30T19:46:42.159Z,1.80
2019-01-30T19:49:08.172Z,1.80
2019-01-30T19:51:34.204Z,1.80
2019-01-30T19:54:00.220Z,1.70
2019-01-30T19:56:26.280Z,1.70
2019-01-30T19:58:52.619Z,1.70
2019-01-30T20:01:18.736Z,1.60
2019-01-30T20:03:44.753Z,1.60
2019-01-30T20:06:11.317Z,1.50
2019-01-30T20:08:37.673Z,1.40
2019-01-30T20:11:03.799Z,1.40
2019-01-30T20:13:29.832Z,1.30
2019-01-30T20:15:55.843Z,1.30
2019-01-30T20:18:21.911Z,1.30
2019-01-30T20:20:47.923Z,1.30
2019-01-30T20:23:13.964Z,1.30
2019-01-30T20:25:43.873Z,1.30
2019-01-30T20:28:09.512Z,1.40
2019-01-30T20:30:35.564Z,1.50
2019-01-30T20:33:01.575Z,1.70
2019-01-30T20:35:27.594Z,1.80
2019-01-30T20:37:53.629Z,1.90
2019-01-30T20:40:21.800Z,2.10
2019-01-30T20:42:47.835Z,2.10
2019-01-30T20:45:14.363Z,2.30
2019-01-30T20:47:40.399Z,2.50
2019-01-30T20:50:10.038Z,2.60
2019-01-30T20:52:36.051Z,2.70
2019-01-30T20:55:04.486Z,2.80
2019-01-30T20:57:30.027Z,2.90
2019-01-30T20:59:56.065Z,2.90
2019-01-30T21:02:22.104Z,2.90
2019-01-30T21:04:48.204Z,2.80
2019-01-30T21:07:14.308Z,2.70
2019-01-30T21:09:40.447Z,2.50
2019-01-30T21:12:06.572Z,2.50
2019-01-30T21:14:32.795Z,2.40
2019-01-30T21:16:58.915Z,2.30
2019-01-30T21:19:24.946Z,2.40
2019-01-30T21:21:51.045Z,2.40
2019-01-30T21:24:17.056Z,2.30
2019-01-30T21:26:43.096Z,2.30
2019-01-30T21:29:09.135Z,2.20
2019-01-30T21:31:35.170Z,2.20
2019-01-30T21:34:01.449Z,2.10
2019-01-30T21:36:27.535Z,1.90
2019-01-30T21:38:53.559Z,1.90
2019-01-30T21:41:19.611Z,1.80
2019-01-30T21:43:45.667Z,1.70
2019-01-30T21:46:11.683Z,1.60
2019-01-30T21:48:37.695Z,1.60
2019-01-30T21:51:03.766Z,1.80
2019-01-30T21:53:29.964Z,2.00
2019-01-30T21:55:56.079Z,2.10
2019-01-30T21:58:22.347Z,2.20
2019-01-30T22:00:48.535Z,2.20
2019-01-30T22:03:14.656Z,2.20
2019-01-30T22:05:40.785Z,2.20
2019-01-30T22:08:06.808Z,2.30
2019-01-30T22:10:32.852Z,2.30
2019-01-30T22:12:58.888Z,2.30
2019-01-30T22:15:24.951Z,2.30
2019-01-30T22:17:51.018Z,2.20
2019-01-30T22:20:21.968Z,2.20
2019-01-30T22:22:47.995Z,2.10
2019-01-30T22:25:20.274Z,2.10
2019-01-30T22:27:43.852Z,2.10
2019-01-30T22:30:16.739Z,2.20
2019-01-30T22:32:42.791Z,2.20
2019-01-30T22:35:08.915Z,2.40
2019-01-30T22:37:34.929Z,2.50
2019-01-30T22:40:01.056Z,2.70
2019-01-30T22:42:46.969Z,2.70
2019-01-30T22:45:14.879Z,2.70
2019-01-30T22:47:40.971Z,2.80
2019-01-30T22:50:08.982Z,2.80
2019-01-30T22:52:35.062Z,2.90
2019-01-30T22:55:01.077Z,3.00
2019-01-30T22:57:27.206Z,3.10
2019-01-30T22:59:53.214Z,3.10
2019-01-30T23:02:19.242Z,3.10
2019-01-30T23:05:06.852Z,3.10
2019-01-30T23:07:56.577Z,3.20
2019-01-30T23:10:29.204Z,3.20
2019-01-30T23:13:19.820Z,3.30
2019-01-30T23:15:49.659Z,3.30
2019-01-30T23:18:28.547Z,3.40
2019-01-30T23:21:01.644Z,3.40
2019-01-30T23:23:47.638Z,3.40
2019-01-30T23:26:17.556Z,3.40
2019-01-30T23:28:50.411Z,3.40
2019-01-30T23:31:20.244Z,3.40
2019-01-30T23:34:11.492Z,3.40
2019-01-30T23:36:53.407Z,3.50
2019-01-30T23:39:47.503Z,3.40
2019-01-30T23:42:20.467Z,3.40
2019-01-30T23:44:56.569Z,3.50
2019-01-30T23:47:59.906Z,3.50
2019-01-30T23:50:50.740Z,3.40
2019-01-30T23:53:23.428Z,3.40
2019-01-30T23:55:58.652Z,3.40
2019-01-30T23:58:43.627Z,3.40
